Time;durP1;ratioP1;P1;durP2;ratioP2;P2;SDS_P1;SDS_P2;PMS_P1;PMS_P2;Temp;Humidity;BMP_temperature;BMP_pressure;BME280_temperature;BME280_humidity;BME280_pressure;Samples;Min_cycle;Max_cycle;Signal;HPM_P1;HPM_P2
2023/05/24 00:01:15;;;;;;;0.40;0.30;;;;;;;16.09;100.00;95154.13;5064604;28;20947;-68
2023/05/24 00:03:45;;;;;;;0.60;0.40;;;;;;;15.68;100.00;95157.06;5065281;28;20461;-69
2023/05/24 00:06:15;;;;;;;1.00;0.47;;;;;;;15.15;100.00;95161.50;5074571;28;20524;-68
2023/05/24 00:08:44;;;;;;;0.80;0.70;;;;;;;15.02;100.00;95163.13;5074631;28;20502;-68
2023/05/24 00:11:12;;;;;;;0.77;0.77;;;;;;;14.96;100.00;95144.81;5058052;28;20429;-68
2023/05/24 00:13:41;;;;;;;0.87;0.87;;;;;;;15.43;100.00;95162.19;5074569;28;20473;-68
2023/05/24 00:16:09;;;;;;;0.50;0.30;;;;;;;15.62;100.00;95158.28;5074245;28;20465;-69
2023/05/24 00:18:39;;;;;;;0.57;0.30;;;;;;;15.58;100.00;95157.31;5074078;28;20533;-68
2023/05/24 00:21:08;;;;;;;0.40;0.37;;;;;;;15.22;100.00;95153.84;5074334;28;20460;-68
2023/05/24 00:23:38;;;;;;;0.50;0.30;;;;;;;15.14;100.00;95157.25;5075313;28;20456;-68
2023/05/24 00:26:06;;;;;;;0.50;0.30;;;;;;;15.40;100.00;95152.91;5073970;28;20449;-69
2023/05/24 00:28:35;;;;;;;2.57;0.50;;;;;;;15.81;100.00;95147.41;5073962;28;21010;-69
2023/05/24 00:31:04;;;;;;;0.50;0.30;;;;;;;16.02;100.00;95151.13;5074024;28;20442;-69
2023/05/24 00:33:32;;;;;;;0.40;0.20;;;;;;;15.88;100.00;95150.41;5073316;28;20477;-69
2023/05/24 00:36:00;;;;;;;0.40;0.30;;;;;;;15.58;100.00;95151.19;5073832;28;20468;-69
2023/05/24 00:38:28;;;;;;;0.40;0.30;;;;;;;15.65;100.00;95146.19;5073854;28;20467;-69
2023/05/24 00:41:00;;;;;;;0.40;0.27;;;;;;;15.69;100.00;95152.50;5073982;28;20437;-69
2023/05/24 00:43:28;;;;;;;0.60;0.30;;;;;;;15.69;100.00;95141.81;5074232;28;20845;-69
2023/05/24 00:46:13;;;;;;;0.40;0.30;;;;;;;14.90;100.00;95061.41;5047466;28;20442;-69
2023/05/24 00:48:42;;;;;;;0.40;0.30;;;;;;;15.56;100.00;95153.38;5073410;28;20461;-69
2023/05/24 00:51:13;;;;;;;0.40;0.30;;;;;;;15.68;100.00;95161.63;5073812;28;20442;-69
2023/05/24 00:53:44;;;;;;;1.37;0.70;;;;;;;15.72;100.00;95165.25;5073319;28;20471;-69
2023/05/24 00:56:16;;;;;;;0.50;0.30;;;;;;;15.46;100.00;95098.28;5072701;28;20553;-69
2023/05/24 00:58:45;;;;;;;0.40;0.30;;;;;;;15.17;100.00;95159.31;5073769;28;20441;-69
2023/05/24 01:01:13;;;;;;;0.40;0.30;;;;;;;14.93;100.00;95161.44;5073798;28;20828;-69
2023/05/24 01:03:42;;;;;;;0.50;0.30;;;;;;;14.72;100.00;95158.44;5073125;28;20445;-69
2023/05/24 01:06:14;;;;;;;0.40;0.27;;;;;;;14.82;100.00;95158.22;5073369;28;20446;-70
2023/05/24 01:08:51;;;;;;;0.90;0.40;;;;;;;15.04;100.00;95155.59;5073047;28;20445;-70
2023/05/24 01:11:29;;;;;;;0.40;0.23;;;;;;;15.04;100.00;95123.56;5073495;28;20451;-70
2023/05/24 01:14:09;;;;;;;0.50;0.40;;;;;;;15.24;100.00;95146.31;5073388;28;20553;-70
2023/05/24 01:16:46;;;;;;;0.60;0.30;;;;;;;15.30;100.00;95141.66;5073240;28;20433;-70
2023/05/24 01:19:42;;;;;;;0.50;0.30;;;;;;;15.37;100.00;95134.81;5072972;28;20437;-71
2023/05/24 01:22:24;;;;;;;0.70;0.70;;;;;;;15.38;100.00;95146.28;5054815;28;20437;-70
2023/05/24 01:25:02;;;;;;;0.40;0.27;;;;;;;15.26;100.00;95136.94;5072024;28;20437;-70
2023/05/24 01:27:34;;;;;;;0.40;0.30;;;;;;;15.15;100.00;95143.56;5071805;28;21104;-72
2023/05/24 01:30:04;;;;;;;0.40;0.20;;;;;;;15.23;100.00;95142.06;5072585;28;20445;-70
2023/05/24 01:32:33;;;;;;;0.50;0.33;;;;;;;15.39;100.00;95142.50;5072505;28;20431;-70
2023/05/24 01:35:02;;;;;;;0.40;0.20;;;;;;;15.42;100.00;95141.91;5073173;28;20688;-70
2023/05/24 01:37:30;;;;;;;0.50;0.40;;;;;;;15.35;100.00;95145.00;5072265;28;20480;-69
2023/05/24 01:39:59;;;;;;;0.50;0.40;;;;;;;15.44;100.00;95143.19;5072499;28;20499;-70
2023/05/24 01:42:36;;;;;;;0.50;0.30;;;;;;;15.31;100.00;95140.56;5072553;28;20934;-69
2023/05/24 01:45:13;;;;;;;0.50;0.30;;;;;;;14.84;100.00;95142.69;5072728;28;20815;-70
2023/05/24 01:47:51;;;;;;;0.47;0.40;;;;;;;14.86;100.00;95145.03;5047840;28;20456;-70
2023/05/24 01:50:26;;;;;;;0.43;0.43;;;;;;;14.88;100.00;95148.19;5072050;28;20472;-70
2023/05/24 01:52:58;;;;;;;0.50;0.40;;;;;;;14.92;100.00;95151.88;5072948;28;20441;-70
2023/05/24 01:55:28;;;;;;;5.83;0.40;;;;;;;15.00;100.00;95146.59;5072411;28;20477;-70
2023/05/24 01:58:02;;;;;;;0.60;0.50;;;;;;;15.10;100.00;95146.34;5072250;28;20938;-70
2023/05/24 02:00:31;;;;;;;0.50;0.33;;;;;;;15.06;100.00;95150.72;5071833;28;20445;-69
2023/05/24 02:03:01;;;;;;;0.40;0.30;;;;;;;15.13;100.00;95152.97;5072622;28;20476;-70
2023/05/24 02:05:32;;;;;;;0.40;0.20;;;;;;;15.13;100.00;95159.09;5072791;28;20445;-70
2023/05/24 02:08:01;;;;;;;0.40;0.30;;;;;;;15.25;100.00;95159.38;5071622;28;20450;-70
2023/05/24 02:10:29;;;;;;;0.40;0.30;;;;;;;15.12;100.00;95133.53;5071105;28;20421;-70
2023/05/24 02:12:59;;;;;;;0.50;0.30;;;;;;;14.88;100.00;95151.66;5071479;28;20426;-70
2023/05/24 02:15:29;;;;;;;0.60;0.50;;;;;;;14.79;100.00;95161.47;5072068;28;20465;-70
2023/05/24 02:17:57;;;;;;;0.60;0.50;;;;;;;14.93;100.00;95166.75;5072611;28;20425;-70
2023/05/24 02:20:27;;;;;;;0.50;0.30;;;;;;;14.92;100.00;95168.66;5072135;28;20437;-70
2023/05/24 02:22:55;;;;;;;0.40;0.30;;;;;;;14.80;100.00;95168.38;5072471;28;20417;-69
2023/05/24 02:25:24;;;;;;;1.80;0.50;;;;;;;14.77;100.00;95152.97;5072119;28;20430;-69
2023/05/24 02:27:52;;;;;;;0.40;0.30;;;;;;;15.02;100.00;95165.78;5071919;28;20500;-69
2023/05/24 02:30:22;;;;;;;0.40;0.40;;;;;;;15.10;100.00;95166.94;5072081;28;20433;-69
2023/05/24 02:32:51;;;;;;;1.00;0.60;;;;;;;14.94;100.00;95168.34;5071506;28;20954;-69
2023/05/24 02:35:19;;;;;;;0.67;0.67;;;;;;;14.79;100.00;95168.69;5071993;28;20470;-70
2023/05/24 02:37:48;;;;;;;0.40;0.30;;;;;;;14.76;100.00;95148.72;5073586;28;20426;-69
2023/05/24 02:40:17;;;;;;;1.10;0.50;;;;;;;14.80;100.00;95162.28;5071955;28;20429;-69
2023/05/24 02:42:45;;;;;;;1.00;0.40;;;;;;;14.87;100.00;95168.78;5071985;28;20764;-69
2023/05/24 02:45:13;;;;;;;0.50;0.30;;;;;;;14.79;100.00;95172.16;5072195;28;20521;-69
2023/05/24 02:47:43;;;;;;;0.40;0.30;;;;;;;14.19;100.00;95166.09;5072052;28;20414;-69
2023/05/24 02:50:12;;;;;;;0.60;0.53;;;;;;;14.11;100.00;95174.78;5072199;28;20430;-70
2023/05/24 02:52:41;;;;;;;2.33;0.40;;;;;;;14.45;100.00;95172.56;5071999;28;20420;-70
2023/05/24 02:55:10;;;;;;;0.50;0.27;;;;;;;14.54;100.00;95180.66;5072066;28;20465;-70
2023/05/24 02:57:38;;;;;;;0.40;0.40;;;;;;;14.33;100.00;95184.78;5071297;28;20434;-70
2023/05/24 03:00:10;;;;;;;0.40;0.20;;;;;;;14.54;100.00;95178.78;5071405;28;20434;-70
2023/05/24 03:02:39;;;;;;;0.40;0.30;;;;;;;14.63;100.00;95178.88;5071449;28;20521;-70
2023/05/24 03:05:09;;;;;;;0.40;0.30;;;;;;;14.70;100.00;95181.91;5071958;28;20425;-71
2023/05/24 03:07:38;;;;;;;0.40;0.30;;;;;;;14.71;100.00;95182.72;5071712;28;21017;-70
2023/05/24 03:10:07;;;;;;;0.40;0.30;;;;;;;14.85;100.00;95180.84;5071677;28;20440;-70
2023/05/24 03:12:36;;;;;;;0.60;0.60;;;;;;;14.90;100.00;95184.16;5070861;28;21111;-64
2023/05/24 03:15:05;;;;;;;0.40;0.30;;;;;;;15.01;100.00;95185.53;5071772;28;20500;-65
2023/05/24 03:17:33;;;;;;;0.40;0.30;;;;;;;15.08;100.00;95180.56;5072010;28;20426;-64
2023/05/24 03:20:02;;;;;;;0.40;0.30;;;;;;;15.10;100.00;95181.06;5072798;28;20484;-65
2023/05/24 03:22:32;;;;;;;0.50;0.30;;;;;;;15.11;100.00;95185.31;5076024;28;20516;-63
2023/05/24 03:25:01;;;;;;;0.40;0.30;;;;;;;14.52;100.00;95111.59;5075464;28;20429;-63
2023/05/24 03:27:29;;;;;;;0.40;0.30;;;;;;;14.97;100.00;95179.25;5075164;28;20484;-64
2023/05/24 03:29:57;;;;;;;0.50;0.40;;;;;;;14.86;100.00;95185.06;5075621;28;20797;-64
2023/05/24 03:32:26;;;;;;;0.70;0.50;;;;;;;14.45;100.00;95127.22;5075969;28;20505;-64
2023/05/24 03:34:56;;;;;;;0.40;0.23;;;;;;;14.88;100.00;95186.34;5075457;28;20469;-65
2023/05/24 03:37:24;;;;;;;0.40;0.30;;;;;;;14.87;100.00;95179.44;5075835;28;20433;-64
2023/05/24 03:39:54;;;;;;;0.40;0.40;;;;;;;14.93;100.00;95182.78;5075435;28;20491;-63
2023/05/24 03:42:22;;;;;;;0.70;0.50;;;;;;;15.05;100.00;95183.84;5075323;28;20465;-63
2023/05/24 03:44:51;;;;;;;0.40;0.30;;;;;;;15.01;100.00;95190.88;5075331;28;20429;-64
2023/05/24 03:47:19;;;;;;;0.40;0.30;;;;;;;14.88;100.00;95186.34;5075522;28;20457;-64
2023/05/24 03:49:47;;;;;;;0.50;0.30;;;;;;;14.49;100.00;95191.44;5075154;28;20915;-63
2023/05/24 03:52:16;;;;;;;0.53;0.33;;;;;;;13.82;100.00;95199.00;5075084;28;20425;-64
2023/05/24 03:54:44;;;;;;;1.27;0.67;;;;;;;13.49;100.00;95209.91;5075106;28;20490;-63
2023/05/24 03:57:14;;;;;;;0.90;0.90;;;;;;;13.61;100.00;95202.28;5074933;28;21019;-63
2023/05/24 03:59:43;;;;;;;0.50;0.50;;;;;;;13.38;100.00;95200.50;5074998;28;20417;-63
2023/05/24 04:02:11;;;;;;;0.70;0.60;;;;;;;13.28;100.00;95204.13;5074877;28;20426;-63
2023/05/24 04:04:39;;;;;;;0.60;0.47;;;;;;;12.98;100.00;95197.28;5074914;28;20418;-63
2023/05/24 04:07:10;;;;;;;0.40;0.30;;;;;;;13.06;100.00;95210.00;5074870;28;20955;-63
2023/05/24 04:09:39;;;;;;;0.97;0.63;;;;;;;13.51;100.00;95210.44;5074814;28;20521;-63
2023/05/24 04:12:07;;;;;;;0.40;0.30;;;;;;;14.02;100.00;95203.97;5074632;28;20430;-63
2023/05/24 04:14:37;;;;;;;0.43;0.40;;;;;;;14.16;100.00;95208.53;5075117;28;20496;-64
2023/05/24 04:17:06;;;;;;;0.80;0.50;;;;;;;14.15;100.00;95198.97;5074556;28;20472;-64
2023/05/24 04:19:36;;;;;;;0.50;0.40;;;;;;;14.52;100.00;95196.94;5074543;28;20421;-64
2023/05/24 04:22:04;;;;;;;0.60;0.40;;;;;;;14.63;100.00;95202.88;5074595;28;20937;-64
2023/05/24 04:24:33;;;;;;;0.60;0.60;;;;;;;14.74;100.00;95206.94;5074765;28;20421;-64
2023/05/24 04:27:01;;;;;;;0.40;0.30;;;;;;;14.83;100.00;95194.47;5074268;28;20554;-64
2023/05/24 04:29:32;;;;;;;1.17;1.03;;;;;;;14.83;100.00;95186.47;5074483;28;20429;-64
2023/05/24 04:32:01;;;;;;;0.50;0.50;;;;;;;14.73;100.00;95201.88;5074421;28;20453;-64
2023/05/24 04:34:32;;;;;;;0.43;0.40;;;;;;;14.85;100.00;95197.63;5074704;28;20422;-65
2023/05/24 04:37:01;;;;;;;0.50;0.50;;;;;;;15.15;100.00;95204.22;5074270;28;20518;-65
2023/05/24 04:39:30;;;;;;;0.60;0.60;;;;;;;14.51;100.00;95200.72;5074280;28;20426;-65
2023/05/24 04:41:59;;;;;;;0.40;0.40;;;;;;;14.51;100.00;95206.03;5074238;28;20438;-65
2023/05/24 04:44:27;;;;;;;0.90;0.90;;;;;;;14.16;100.00;95208.53;5074538;28;20807;-64
2023/05/24 04:46:56;;;;;;;1.00;0.80;;;;;;;13.98;100.00;95210.97;5074162;28;20438;-64
2023/05/24 04:49:26;;;;;;;0.60;0.60;;;;;;;14.28;100.00;95203.53;5074042;28;20882;-63
2023/05/24 04:51:54;;;;;;;1.60;1.50;;;;;;;14.74;100.00;95212.28;5073731;28;20417;-63
2023/05/24 04:54:23;;;;;;;0.50;0.40;;;;;;;15.05;100.00;95181.16;5074062;28;20458;-64
2023/05/24 04:56:52;;;;;;;0.57;0.50;;;;;;;15.47;100.00;95203.25;5074589;28;20550;-64
2023/05/24 04:59:20;;;;;;;1.30;0.60;;;;;;;15.49;100.00;95214.41;5074046;28;20462;-64
2023/05/24 05:01:48;;;;;;;4.93;1.43;;;;;;;15.10;100.00;95210.44;5073871;28;20433;-64
2023/05/24 05:04:17;;;;;;;2.70;1.17;;;;;;;15.36;100.00;95216.00;5073773;28;20430;-64
2023/05/24 05:06:47;;;;;;;0.70;0.60;;;;;;;14.94;100.00;95163.03;5074131;28;20456;-63
2023/05/24 05:09:16;;;;;;;0.90;0.80;;;;;;;14.81;100.00;95211.84;5073879;28;20832;-64
2023/05/24 05:11:46;;;;;;;0.60;0.50;;;;;;;15.06;100.00;95208.66;5073693;28;20426;-63
2023/05/24 05:14:31;;;;;;;0.40;0.30;;;;;;;14.80;100.00;95168.38;5073641;28;20468;-62
2023/05/24 05:16:59;;;;;;;0.40;0.40;;;;;;;15.37;100.00;95219.47;5073689;28;20488;-62
2023/05/24 05:19:28;;;;;;;0.53;0.53;;;;;;;16.07;100.00;95207.13;5073316;28;20426;-62
2023/05/24 05:21:57;;;;;;;1.50;1.40;;;;;;;15.63;100.00;95220.50;5073478;28;20436;-62
2023/05/24 05:24:26;;;;;;;2.40;0.70;;;;;;;15.17;100.00;95215.38;5073321;28;21153;-62
2023/05/24 05:26:54;;;;;;;0.73;0.73;;;;;;;15.79;100.00;95193.13;5054344;28;20544;-62
2023/05/24 05:29:23;;;;;;;0.70;0.30;;;;;;;16.35;100.00;95199.72;5053469;28;20445;-62
2023/05/24 05:31:51;;;;;;;0.83;0.83;;;;;;;16.79;100.00;95206.84;5053592;28;20431;-62
2023/05/24 05:34:20;;;;;;;0.80;0.47;;;;;;;17.04;96.42;95203.44;5053204;28;20437;-62
2023/05/24 05:36:48;;;;;;;0.50;0.50;;;;;;;17.27;92.82;95207.59;5053056;28;20470;-61
2023/05/24 05:39:18;;;;;;;0.60;0.50;;;;;;;17.68;92.82;95207.94;5053152;28;20466;-62
2023/05/24 05:41:46;;;;;;;0.43;0.30;;;;;;;17.81;90.26;95187.44;5052618;28;20418;-62
2023/05/24 05:44:15;;;;;;;0.50;0.40;;;;;;;18.03;88.05;95211.41;5052689;28;20453;-61
2023/05/24 05:46:44;;;;;;;0.80;0.80;;;;;;;18.10;86.73;95209.00;5052718;28;20935;-61
2023/05/24 05:49:14;;;;;;;0.40;0.30;;;;;;;17.57;85.81;95158.47;5052169;28;20470;-61
2023/05/24 05:51:42;;;;;;;0.73;0.30;;;;;;;17.49;86.33;95204.75;5052145;28;20907;-61
2023/05/24 05:54:14;;;;;;;0.40;0.30;;;;;;;17.52;86.86;95166.66;5052482;28;20450;-61
2023/05/24 05:56:46;;;;;;;1.73;0.80;;;;;;;18.11;84.72;95207.91;5052297;28;20478;-61
2023/05/24 05:59:15;;;;;;;8.07;1.00;;;;;;;17.79;85.66;95211.09;5052317;28;20950;-62
2023/05/24 06:01:45;;;;;;;0.50;0.40;;;;;;;17.42;88.24;95212.50;5052612;28;20521;-62
2023/05/24 06:04:14;;;;;;;1.37;0.90;;;;;;;17.57;87.48;95204.00;5052935;28;20446;-61
2023/05/24 06:06:44;;;;;;;0.60;0.60;;;;;;;18.50;84.99;95212.22;5052620;28;20427;-60
2023/05/24 06:09:12;;;;;;;2.30;0.60;;;;;;;18.90;91.97;95210.78;5052924;28;20423;-60
2023/05/24 06:11:43;;;;;;;0.50;0.40;;;;;;;19.06;86.07;95215.63;5052352;28;20817;-59
2023/05/24 06:14:18;;;;;;;1.57;0.90;;;;;;;18.85;80.46;95143.84;5052694;28;20415;-60
2023/05/24 06:16:47;;;;;;;1.00;0.87;;;;;;;18.74;78.96;95212.47;5052262;28;20492;-60
2023/05/24 06:19:15;;;;;;;0.63;0.63;;;;;;;18.39;80.22;95216.38;5052166;28;20419;-59
2023/05/24 06:21:46;;;;;;;0.87;0.70;;;;;;;19.17;84.72;95206.06;5052235;28;20497;-62
2023/05/24 06:24:19;;;;;;;4.20;0.87;;;;;;;19.09;76.33;95214.97;5052258;28;20418;-62
2023/05/24 06:26:48;;;;;;;0.93;0.83;;;;;;;18.83;77.18;95210.53;5063442;28;20481;-62
2023/05/24 06:29:19;;;;;;;1.67;0.80;;;;;;;18.46;77.42;95210.50;5070871;28;20460;-62
2023/05/24 06:31:48;;;;;;;0.47;0.47;;;;;;;19.02;77.88;95207.44;5072004;28;20442;-62
2023/05/24 06:34:19;;;;;;;2.07;0.70;;;;;;;18.97;75.62;95203.00;5071574;28;20506;-63
2023/05/24 06:36:50;;;;;;;1.37;0.50;;;;;;;18.68;76.53;95197.63;5071781;28;20933;-63
2023/05/24 06:39:18;;;;;;;0.53;0.53;;;;;;;19.33;75.03;95151.41;5071845;28;20520;-62
2023/05/24 06:41:50;;;;;;;0.70;0.70;;;;;;;19.90;74.50;95201.91;5070578;28;20442;-63
2023/05/24 06:44:22;;;;;;;0.60;0.33;;;;;;;20.24;72.30;95199.69;5071458;28;20469;-63
2023/05/24 06:46:52;;;;;;;2.67;0.67;;;;;;;20.27;72.34;95198.25;5071325;28;20938;-64
2023/05/24 06:49:21;;;;;;;0.73;0.73;;;;;;;20.52;70.90;95118.28;5071610;28;20805;-65
2023/05/24 06:51:49;;;;;;;0.60;0.60;;;;;;;20.91;68.42;95190.34;5070836;28;20953;-66
2023/05/24 06:54:18;;;;;;;0.60;0.37;;;;;;;21.47;66.32;95194.81;5070568;28;20442;-66
2023/05/24 06:56:46;;;;;;;0.70;0.70;;;;;;;21.18;65.92;95181.59;5070770;28;20681;-67
2023/05/24 06:59:14;;;;;;;0.40;0.40;;;;;;;21.23;67.08;95186.75;5070739;28;20456;-70
2023/05/24 07:01:44;;;;;;;0.43;0.33;;;;;;;22.05;65.05;95179.13;5071638;28;20504;-71
2023/05/24 07:04:12;;;;;;;1.40;0.57;;;;;;;22.04;63.57;95131.66;5070790;28;21136;-68
2023/05/24 07:06:41;;;;;;;0.53;0.47;;;;;;;22.25;60.54;95183.53;5071455;28;20449;-67
2023/05/24 07:09:10;;;;;;;0.70;0.53;;;;;;;22.17;61.40;95176.38;5070971;28;20437;-65
2023/05/24 07:11:38;;;;;;;0.67;0.50;;;;;;;22.91;61.28;95177.47;5072940;28;20529;-64
2023/05/24 07:14:06;;;;;;;0.50;0.40;;;;;;;22.88;61.34;95180.88;5072953;28;20446;-64
2023/05/24 07:16:35;;;;;;;0.50;0.50;;;;;;;21.83;61.61;95131.84;5071250;28;20521;-65
2023/05/24 07:19:05;;;;;;;0.73;0.50;;;;;;;22.55;61.33;95171.19;5070621;28;20473;-64
2023/05/24 07:21:33;;;;;;;0.50;0.37;;;;;;;23.42;58.78;95173.66;5071391;28;20949;-65
2023/05/24 07:24:02;;;;;;;0.50;0.30;;;;;;;23.63;58.76;95159.81;5071129;28;20930;-67
2023/05/24 07:26:31;;;;;;;0.50;0.50;;;;;;;24.19;55.20;95163.63;5068476;28;20449;-67
2023/05/24 07:28:59;;;;;;;0.50;0.40;;;;;;;24.64;54.25;95160.19;5070397;28;20434;-67
2023/05/24 07:31:30;;;;;;;0.80;0.47;;;;;;;25.20;54.53;95155.66;5071615;28;20507;-67
2023/05/24 07:33:58;;;;;;;6.20;1.73;;;;;;;24.74;51.94;95154.16;5071077;28;20472;-69
2023/05/24 07:36:31;;;;;;;0.47;0.47;;;;;;;24.46;53.64;95137.44;5071066;28;20989;-66
2023/05/24 07:39:04;;;;;;;0.40;0.33;;;;;;;25.11;54.04;95149.72;5071249;28;20498;-64
2023/05/24 07:41:33;;;;;;;0.40;0.30;;;;;;;24.09;53.94;95015.28;5070808;28;20441;-60
2023/05/24 07:44:01;;;;;;;1.77;0.40;;;;;;;25.09;53.72;95141.19;5071211;28;20930;-71
2023/05/24 07:46:29;;;;;;;0.60;0.60;;;;;;;24.89;50.95;95138.94;5070851;28;20438;-56
2023/05/24 07:48:58;;;;;;;0.77;0.77;;;;;;;25.39;50.63;95143.13;5070846;28;20442;-56
2023/05/24 07:51:27;;;;;;;2.30;0.60;;;;;;;26.27;47.64;95139.59;5070922;28;20441;-52
2023/05/24 07:53:56;;;;;;;0.40;0.30;;;;;;;25.73;48.71;95137.41;5071013;28;20433;-53
2023/05/24 07:56:25;;;;;;;0.47;0.30;;;;;;;26.76;50.67;95131.16;5065627;28;20446;-53
2023/05/24 07:58:58;;;;;;;0.50;0.50;;;;;;;26.92;47.67;95133.56;5061077;28;20478;-54
2023/05/24 08:01:27;;;;;;;0.40;0.30;;;;;;;26.20;49.79;95130.59;5070236;28;20441;-53
2023/05/24 08:03:56;;;;;;;0.57;0.40;;;;;;;25.80;48.96;95125.88;5070526;28;20438;-53
2023/05/24 08:06:25;;;;;;;0.60;0.50;;;;;;;25.95;47.92;95126.78;5047298;28;20449;-53
2023/05/24 08:08:55;;;;;;;0.50;0.50;;;;;;;26.68;47.08;95124.06;5074436;28;20441;-53
2023/05/24 08:11:23;;;;;;;0.50;0.50;;;;;;;27.21;45.21;95123.66;5075044;28;20441;-53
2023/05/24 08:13:52;;;;;;;0.40;0.40;;;;;;;27.63;45.92;95123.91;5074448;28;20433;-53
2023/05/24 08:16:20;;;;;;;2.53;0.40;;;;;;;28.13;44.86;95116.75;5074333;28;20429;-53
2023/05/24 08:18:48;;;;;;;0.40;0.30;;;;;;;28.51;42.07;95113.31;5074128;28;20469;-53
2023/05/24 08:21:21;;;;;;;0.30;0.27;;;;;;;28.64;41.57;95095.41;5074640;28;20434;-51
2023/05/24 08:23:49;;;;;;;0.93;0.70;;;;;;;26.55;43.29;95116.53;5074091;28;20468;-53
2023/05/24 08:26:19;;;;;;;0.70;0.60;;;;;;;27.16;44.70;95119.38;5074325;28;20441;-53
2023/05/24 08:28:48;;;;;;;0.90;0.70;;;;;;;26.74;44.31;95111.66;5073903;28;20817;-52
2023/05/24 08:31:16;;;;;;;0.50;0.50;;;;;;;26.53;44.63;95110.72;5074268;28;20480;-52
2023/05/24 08:33:49;;;;;;;0.47;0.40;;;;;;;27.48;45.37;95104.03;5073837;28;20441;-52
2023/05/24 08:36:17;;;;;;;0.40;0.30;;;;;;;27.73;44.76;95098.66;5074142;28;20472;-53
2023/05/24 08:38:46;;;;;;;2.10;0.30;;;;;;;28.36;42.62;95102.78;5074024;28;20481;-52
2023/05/24 08:41:14;;;;;;;3.53;0.47;;;;;;;27.91;43.46;95104.97;5074038;28;20439;-71
2023/05/24 08:43:46;;;;;;;0.70;0.70;;;;;;;27.73;44.42;95085.84;5073759;28;20895;-69
2023/05/24 08:46:17;;;;;;;0.67;0.60;;;;;;;26.87;44.37;95118.38;5073713;28;20956;-65
2023/05/24 08:48:47;;;;;;;1.37;0.50;;;;;;;27.98;44.29;95101.50;5073806;28;21029;-69
2023/05/24 08:51:16;;;;;;;1.00;0.87;;;;;;;28.79;43.65;95107.13;5074136;28;21006;-69
2023/05/24 08:53:47;;;;;;;0.40;0.30;;;;;;;29.32;41.30;95080.53;5074111;28;20805;-69
2023/05/24 08:56:17;;;;;;;0.60;0.57;;;;;;;29.10;40.17;95083.66;5073489;28;20442;-68
2023/05/24 08:58:48;;;;;;;0.40;0.30;;;;;;;30.14;39.34;95102.84;5073554;28;20484;-68
2023/05/24 09:01:17;;;;;;;2.00;0.70;;;;;;;29.18;40.04;95110.56;5073370;28;20438;-67
2023/05/24 09:03:46;;;;;;;0.90;0.40;;;;;;;29.36;40.83;95099.63;5073637;28;20437;-67
2023/05/24 09:06:18;;;;;;;0.60;0.60;;;;;;;28.85;39.14;95105.53;5073591;28;20430;-68
2023/05/24 09:08:46;;;;;;;0.87;0.60;;;;;;;29.84;40.14;95097.94;5073454;28;21015;-67
2023/05/24 09:11:16;;;;;;;0.70;0.70;;;;;;;30.66;38.77;95096.25;5073401;28;20466;-68
2023/05/24 09:13:48;;;;;;;0.53;0.53;;;;;;;30.48;38.28;95103.06;5073380;28;20491;-67
2023/05/24 09:16:16;;;;;;;0.50;0.50;;;;;;;29.75;38.26;95083.91;5073258;28;20438;-68
2023/05/24 09:18:45;;;;;;;0.70;0.60;;;;;;;29.35;36.91;95106.25;5072334;28;20482;-68
2023/05/24 09:21:13;;;;;;;1.63;0.77;;;;;;;29.28;36.82;95073.53;5073608;28;20464;-65
2023/05/24 09:23:42;;;;;;;0.40;0.30;;;;;;;30.45;38.16;95101.91;5073123;28;20507;-69
2023/05/24 09:26:11;;;;;;;0.63;0.50;;;;;;;31.06;35.25;95100.28;5073322;28;20441;-69
2023/05/24 09:28:40;;;;;;;0.40;0.30;;;;;;;31.63;35.20;95097.72;5072963;28;20461;-70
2023/05/24 09:31:11;;;;;;;0.50;0.40;;;;;;;30.03;32.14;95093.94;5073470;28;20464;-69
2023/05/24 09:33:40;;;;;;;0.80;0.80;;;;;;;30.58;34.08;95089.31;5072516;28;20433;-70
2023/05/24 09:36:09;;;;;;;0.40;0.40;;;;;;;31.51;32.55;95084.56;5073157;28;20684;-70
2023/05/24 09:38:37;;;;;;;0.40;0.40;;;;;;;30.72;29.82;95088.41;5072739;28;20999;-70
2023/05/24 09:41:09;;;;;;;0.50;0.50;;;;;;;29.98;30.04;95086.91;5072732;28;20438;-67
2023/05/24 09:43:48;;;;;;;0.47;0.40;;;;;;;30.91;30.36;95085.16;5072385;28;20476;-68
2023/05/24 09:46:20;;;;;;;0.40;0.30;;;;;;;30.63;30.65;95096.31;5075458;28;20444;-71
2023/05/24 09:48:58;;;;;;;0.73;0.60;;;;;;;30.93;28.11;95041.72;5075929;28;20451;-72
2023/05/24 09:51:27;;;;;;;0.30;0.20;;;;;;;31.88;29.65;95086.44;5061346;28;20464;-70
2023/05/24 09:53:57;;;;;;;0.40;0.30;;;;;;;32.66;29.02;95082.66;5073983;28;20437;-73
2023/05/24 09:56:26;;;;;;;2.50;0.93;;;;;;;31.25;29.96;95080.50;5072617;28;20437;-69
2023/05/24 09:58:55;;;;;;;0.40;0.30;;;;;;;32.17;30.14;95078.66;5072349;28;20853;-69
2023/05/24 10:01:26;;;;;;;0.40;0.30;;;;;;;31.75;31.16;95085.47;5072525;28;20445;-71
2023/05/24 10:03:57;;;;;;;0.30;0.20;;;;;;;31.64;28.46;95084.81;5072535;28;20435;-69
2023/05/24 10:06:26;;;;;;;0.73;0.73;;;;;;;31.27;28.25;95078.13;5072634;28;20475;-69
2023/05/24 10:08:55;;;;;;;0.40;0.30;;;;;;;31.82;29.04;95050.53;5071869;28;20464;-69
2023/05/24 10:11:25;;;;;;;0.50;0.40;;;;;;;30.94;28.54;95053.47;5072093;28;20929;-56
2023/05/24 10:13:53;;;;;;;0.50;0.40;;;;;;;31.12;27.49;95070.50;5072069;28;20441;-67
2023/05/24 10:16:22;;;;;;;1.20;1.20;;;;;;;31.32;27.52;95071.47;5072104;28;20445;-60
2023/05/24 10:18:53;;;;;;;0.40;0.30;;;;;;;30.03;29.32;95055.69;5071610;28;20472;-59
2023/05/24 10:21:24;;;;;;;0.40;0.33;;;;;;;30.86;28.98;95077.34;5071879;28;20985;-60
2023/05/24 10:23:58;;;;;;;0.50;0.40;;;;;;;31.91;27.62;95061.75;5071610;28;20930;-62
2023/05/24 10:26:32;;;;;;;0.70;0.50;;;;;;;31.88;26.49;95061.78;5072404;28;20460;-61
2023/05/24 10:29:06;;;;;;;0.50;0.30;;;;;;;31.01;28.22;95067.84;5071356;28;20445;-61
2023/05/24 10:31:40;;;;;;;0.40;0.40;;;;;;;29.10;30.43;95059.09;5064123;28;20444;-60
2023/05/24 10:34:10;;;;;;;0.70;0.40;;;;;;;29.02;31.12;95061.06;5071866;28;20437;-61
2023/05/24 10:36:40;;;;;;;0.40;0.30;;;;;;;29.05;30.37;95071.22;5071296;28;20942;-60
2023/05/24 10:39:11;;;;;;;0.40;0.30;;;;;;;30.09;30.45;95060.31;5071747;28;20511;-60
2023/05/24 10:41:41;;;;;;;0.30;0.30;;;;;;;30.34;27.60;95051.16;5071585;28;20451;-61
2023/05/24 10:44:13;;;;;;;0.40;0.30;;;;;;;31.20;27.75;95061.78;5071572;28;20460;-61
2023/05/24 10:47:17;;;;;;;0.50;0.40;;;;;;;30.10;28.03;95063.84;5071517;28;20429;-61
2023/05/24 10:49:52;;;;;;;0.40;0.40;;;;;;;29.55;28.34;95056.25;5071684;28;20436;-60
2023/05/24 10:52:20;;;;;;;0.40;0.33;;;;;;;28.21;30.28;94958.28;5071760;28;20437;-60
2023/05/24 10:55:06;;;;;;;0.40;0.30;;;;;;;28.21;32.11;95055.63;5071117;28;20468;-60
2023/05/24 10:57:35;;;;;;;1.43;0.50;;;;;;;27.62;33.43;95060.53;5070739;28;20448;-59
2023/05/24 11:00:28;;;;;;;0.40;0.40;;;;;;;27.59;33.32;95055.06;5071405;28;20477;-59
2023/05/24 11:03:01;;;;;;;0.80;0.80;;;;;;;26.51;35.11;95070.31;5066577;28;20981;-59
2023/05/24 11:05:35;;;;;;;0.50;0.40;;;;;;;27.21;35.23;95056.44;5071047;28;20508;-58
2023/05/24 11:08:08;;;;;;;0.70;0.50;;;;;;;27.81;34.72;95053.97;5046118;28;20437;-58
2023/05/24 11:10:37;;;;;;;0.40;0.30;;;;;;;27.81;34.61;95064.06;5071307;28;20437;-58
2023/05/24 11:13:08;;;;;;;0.43;0.43;;;;;;;28.08;34.99;95065.34;5071399;28;20442;-59
2023/05/24 11:15:37;;;;;;;0.40;0.30;;;;;;;28.04;35.12;95068.06;5070892;28;20454;-59
2023/05/24 11:18:15;;;;;;;1.87;0.80;;;;;;;28.14;34.46;95067.31;5071442;28;20961;-58
2023/05/24 11:20:46;;;;;;;0.63;0.50;;;;;;;28.19;33.47;95068.84;5070798;28;20503;-59
2023/05/24 11:23:16;;;;;;;1.47;0.53;;;;;;;27.97;34.52;95075.41;5070974;28;20437;-53
2023/05/24 11:25:47;;;;;;;0.70;0.40;;;;;;;28.72;35.08;95049.81;5070831;28;20441;-54
2023/05/24 11:28:15;;;;;;;1.87;0.50;;;;;;;29.32;33.31;95023.19;5070997;28;20883;-51
2023/05/24 11:30:45;;;;;;;0.40;0.33;;;;;;;29.28;33.48;95060.66;5044578;28;20469;-61
2023/05/24 11:33:18;;;;;;;1.10;1.03;;;;;;;29.33;34.06;95032.16;5071140;28;20809;-61
2023/05/24 11:35:50;;;;;;;0.60;0.40;;;;;;;28.29;34.71;95060.69;5071042;28;20448;-62
2023/05/24 11:38:20;;;;;;;1.30;0.80;;;;;;;27.39;35.03;95065.50;5071048;28;20441;-61
2023/05/24 11:40:52;;;;;;;1.07;0.40;;;;;;;27.88;34.32;95061.38;5072050;28;20479;-61
2023/05/24 11:43:21;;;;;;;0.50;0.50;;;;;;;27.53;34.32;95060.09;5074715;28;20469;-61